Forside
METAR-TAF:

METAR-TAF

Lufthavne :

Tooele, Utah, USA

Breddekreds: 40-36-45N, længdekreds: 112-21-03W, højde: 1317 m

Aktuelle vejr

Denne rapport blev lavet for 23 minutter siden, kl. 07:15 UTC
Vind 11 kt fra syd
Temperatur 5°C
Fugtighed 41%
Tryk 1018 hPa
Sigt: 16.1 km
skyfri

METAR: KTVY 290715Z AUTO 19011KT 10SM CLR 05/M07 A3007 RMK AO2

Tid: 00:38 (07:38 UTC)


TAF: fraværende

Vejrobservationer og prognoser fra mere end 4000 lufthavne (METAR og TAF).

De gule og røde prikker repræsenterer de meteorologiske stationer.

Flyt musen over at se navnet på stationen.

Så klik over at se vejr observationer og prognoser.

At skifte det kort: Klik på de grønne knapper med et sort kors for at zoome ind; på den grønne knap med en bindestreg for at zoome ud; eller på de grønne pile for tilstødende kort.


METAR-TAF: